Latest Weather Observations for Cape Sorell

IDT60801

Issued at 9:32 pm EST Saturday 27 August 2016 (issued every 30 minutes, with the page automatically refreshed every 10 minutes)

About weather observations | Map of weather stations | Latest weather observations for TAS | Other Formats
Station Details ID: 097000 Name: CAPE SORELL Lat: -42.20 Lon: 145.17 Height: 19.3 m
Data from the previous 72 hours. | See also: Recent months at Cape Sorell
Date/Time
EST
Temp
°C
App
Temp
°C
Dew
Point
°C
Rel
Hum
%
Delta-T
°C
Wind Press
QNH
hPa
Press
MSL
hPa
Rain since
9am
mm
Dir  Spd
km/h
Gust
km/h
Spd
kts
Gust
kts
27/09:30pm 11.5 0.7 9.8 89 0.9 NNW 57 78 31 42 1006.6 1006.7 4.6
27/09:01pm 11.4 2.5 9.3 87 1.1 NNW 46 70 25 38 1006.7 1006.8 2.4
27/09:00pm 11.5 2.7 9.4 87 1.1 NNW 46 65 25 35 1006.7 1006.8 2.4
27/08:35pm 11.6 1.5 9.0 84 1.3 NNW 52 76 28 41 1007.0 1007.1 0.8
27/08:30pm 11.8 2.1 9.0 83 1.4 NNW 50 67 27 36 1007.3 1007.4 0.8
27/08:00pm 11.9 2.1 8.7 81 1.6 NNW 50 69 27 37 1007.5 1007.6 0.6
27/07:46pm 12.3 3.3 8.8 79 1.7 NNW 46 67 25 36 1007.5 1007.6 0.4
27/07:30pm 12.3 3.2 8.6 78 1.8 NNW 46 59 25 32 1008.0 1008.1 0.4
27/07:00pm 12.1 3.0 8.4 78 1.8 NNW 46 67 25 36 1008.4 1008.5 0.4
27/06:51pm 12.4 3.8 8.9 79 1.8 NNW 44 67 24 36 1008.3 1008.4 0.4
27/06:30pm 12.3 3.3 8.8 79 1.7 NNW 46 57 25 31 1008.2 1008.3 0.4
27/06:00pm 11.9 3.4 8.6 80 1.6 NW 43 56 23 30 1009.0 1009.1 0.4
27/05:30pm 12.3 4.6 8.6 78 1.8 NNW 39 52 21 28 1009.0 1009.1 0.4
27/05:00pm 12.2 4.4 8.3 77 1.9 NW 39 50 21 27 1009.4 1009.5 0.4
27/04:30pm 12.0 5.0 8.3 78 1.8 NW 35 56 19 30 1009.7 1009.8 0.4
27/04:15pm 11.9 5.2 8.2 78 1.8 NW 33 52 18 28 1009.8 1009.9 0.4
27/04:00pm 11.9 4.9 8.4 79 1.7 NW 35 52 19 28 1009.9 1010.0 0.4
27/03:30pm 11.6 3.5 8.6 82 1.5 NW 41 59 22 32 1010.3 1010.4 0.4
27/03:00pm 11.1 4.0 8.1 82 1.5 NW 35 61 19 33 1010.0 1010.1 0.4
27/02:38pm 10.9 2.0 6.8 76 1.9 NW 43 70 23 38 1010.2 1010.3 0.4
27/02:36pm 11.2 2.7 6.9 75 2.0 NW 41 70 22 38 1009.9 1010.0 0.4
27/02:33pm 12.6 5.5 8.1 74 2.2 NW 35 61 19 33 1010.2 1010.3 0.2
27/02:30pm 12.6 5.5 8.1 74 2.2 NW 35 48 19 26 1010.1 1010.2 0.2
27/02:00pm 12.4 5.6 7.9 74 2.2 NW 33 48 18 26 1010.4 1010.5 0.2
27/01:32pm 12.5 3.8 7.8 73 2.3 NW 43 63 23 34 1010.8 1010.9 0.2
27/01:30pm 12.6 3.4 7.9 73 2.3 NW 46 63 25 34 1010.9 1011.0 0.2
27/01:20pm 12.5 4.6 8.0 74 2.2 NW 39 59 21 32 1011.1 1011.2 0.2
27/01:00pm 12.4 4.5 7.9 74 2.2 NW 39 52 21 28 1011.3 1011.4 0.2
27/12:30pm 12.5 5.5 8.4 76 2.0 NW 35 52 19 28 1011.6 1011.7 0.2
27/12:00pm 11.9 5.3 8.6 80 1.6 NW 33 46 18 25 1012.0 1012.1 0.2
27/11:39am 12.0 3.8 8.1 77 1.9 NW 41 63 22 34 1012.2 1012.3 0.2
27/11:30am 12.2 4.5 8.5 78 1.8 NW 39 54 21 29 1012.3 1012.4 0.2
27/11:00am 11.4 3.0 8.8 84 1.3 WNW 43 56 23 30 1012.6 1012.7 0.2
27/10:30am 11.3 3.5 8.2 81 1.5 NW 39 56 21 30 1013.0 1013.1 0.0
27/10:00am 11.7 4.4 8.9 83 1.4 NW 37 46 20 25 1013.2 1013.3 0.0
27/09:39am 11.4 4.6 9.1 86 1.1 NW 35 54 19 29 1013.4 1013.5 0.0
27/09:30am 11.1 3.0 8.8 86 1.1 NW 41 54 22 29 1013.3 1013.4 0.0
27/09:05am 11.3 4.8 8.9 85 1.2 NW 33 54 18 29 1013.3 1013.4 0.0
27/09:00am 11.1 4.5 8.7 85 1.2 NW 33 44 18 24 1013.4 1013.5 1.8
27/08:39am 11.3 4.7 8.7 84 1.3 NW 33 52 18 28 1013.5 1013.6 1.6
27/08:30am 11.3 4.4 8.7 84 1.3 NW 35 50 19 27 1013.4 1013.5 1.6
27/08:11am 11.2 4.9 8.8 85 1.2 NW 32 54 17 29 1013.4 1013.5 1.6
27/08:00am 11.1 4.5 8.7 85 1.2 NW 33 44 18 24 1013.3 1013.4 1.6
27/07:30am 10.9 5.3 8.8 87 1.0 NW 28 39 15 21 1013.3 1013.4 1.6
27/07:00am 10.6 4.5 8.4 86 1.1 NW 30 41 16 22 1013.3 1013.4 1.6
27/06:30am 10.1 3.5 7.9 86 1.1 NW 32 43 17 23 1013.3 1013.4 1.6
27/06:19am 10.4 4.3 8.2 86 1.1 NW 30 52 16 28 1013.4 1013.5 1.6
27/06:00am 10.3 4.5 7.9 85 1.2 NW 28 43 15 23 1013.5 1013.6 1.6
27/05:30am 10.4 4.2 8.0 85 1.2 NW 30 44 16 24 1013.7 1013.8 1.6
27/05:00am 10.4 4.2 7.8 84 1.3 NW 30 37 16 20 1013.5 1013.6 1.6
27/04:30am 10.6 5.3 8.4 86 1.1 NW 26 33 14 18 1013.4 1013.5 1.6
27/04:00am 10.1 4.7 7.9 86 1.1 NW 26 39 14 21 1013.4 1013.5 1.6
27/03:30am 9.9 5.2 7.8 87 1.0 NW 22 33 12 18 1013.5 1013.6 1.6
27/03:00am 9.9 3.3 7.8 87 1.0 WNW 32 43 17 23 1013.9 1014.0 1.6
27/02:30am 9.5 2.6 7.4 87 1.0 WNW 33 46 18 25 1014.1 1014.2 1.4
27/02:00am 10.2 4.1 8.1 87 1.0 WNW 30 43 16 23 1014.4 1014.5 1.4
27/01:30am 10.3 4.2 8.1 86 1.1 WNW 30 43 16 23 1014.8 1014.9 1.4
27/01:20am 10.4 3.0 8.3 87 1.0 WNW 37 48 20 26 1014.6 1014.7 1.4
27/01:00am 10.6 6.1 8.5 87 1.0 NNW 22 28 12 15 1014.5 1014.6 1.4
27/12:30am 10.3 5.4 8.4 88 0.9 NW 24 33 13 18 1014.5 1014.6 1.4
27/12:00am 10.2 5.6 8.3 88 0.9 NW 22 33 12 18 1014.8 1014.9 1.4
 
Date/Time
EST
Temp
°C
App
Temp
°C
Dew
Point
°C
Rel
Hum
%
Delta-T
°C
Wind Press
QNH
hPa
Press
MSL
hPa
Rain since
9am
mm
Dir  Spd
km/h
Gust
km/h
Spd
kts
Gust
kts
26/11:30pm 10.2 6.2 8.3 88 0.9 NNW 19 24 10 13 1014.8 1014.9 1.4
26/11:00pm 9.9 5.8 8.0 88 0.9 NW 19 24 10 13 1015.1 1015.2 1.4
26/10:30pm 10.0 5.8 8.1 88 0.9 WNW 20 28 11 15 1015.3 1015.4 1.4
26/10:00pm 10.1 5.8 8.0 87 1.0 WNW 20 28 11 15 1015.6 1015.7 1.2
26/09:30pm 10.0 4.6 7.9 87 1.0 WNW 26 35 14 19 1015.6 1015.7 1.2
26/09:00pm 9.8 5.5 7.9 88 0.9 NW 20 30 11 16 1015.8 1015.8 1.2
26/08:30pm 10.0 4.6 8.1 88 0.9 WNW 26 39 14 21 1015.6 1015.7 1.2
26/08:00pm 9.6 4.1 7.7 88 0.9 WNW 26 39 14 21 1015.5 1015.6 1.2
26/07:30pm 9.9 4.9 8.0 88 0.9 NW 24 32 13 17 1015.5 1015.6 1.2
26/07:09pm 10.3 4.6 8.2 87 1.0 NW 28 48 15 26 1015.3 1015.4 1.0
26/07:00pm 10.3 6.3 8.2 87 1.0 NW 19 28 10 15 1015.3 1015.4 1.0
26/06:30pm 10.2 6.0 8.3 88 0.9 NW 20 30 11 16 1015.1 1015.2 1.0
26/06:00pm 10.0 4.6 8.1 88 0.9 NW 26 35 14 19 1014.9 1015.0 1.0
26/05:30pm 10.2 4.5 8.3 88 0.9 NW 28 37 15 20 1014.8 1014.9 1.0
26/05:00pm 10.2 5.3 8.3 88 0.9 NNW 24 32 13 17 1014.6 1014.7 1.0
26/04:30pm 10.1 4.7 8.0 87 1.0 NW 26 37 14 20 1014.6 1014.7 1.0
26/04:00pm 10.0 4.6 7.9 87 1.0 NW 26 39 14 21 1014.5 1014.6 1.0
26/03:30pm 9.9 4.0 7.7 86 1.1 W 28 39 15 21 1014.4 1014.5 0.8
26/03:00pm 10.1 4.2 7.5 84 1.2 WNW 28 39 15 21 1014.5 1014.6 0.4
26/02:45pm 11.0 4.8 7.9 81 1.5 WNW 30 48 16 26 1014.3 1014.4 0.2
26/02:30pm 11.5 6.6 8.4 81 1.5 NW 24 37 13 20 1014.6 1014.7 0.2
26/02:00pm 11.3 5.1 8.0 80 1.6 NW 30 43 16 23 1014.7 1014.8 0.0
26/01:30pm 10.8 5.3 7.5 80 1.6 NW 26 44 14 24 1014.7 1014.8 0.0
26/01:00pm 10.3 4.6 6.6 78 1.7 WNW 26 35 14 19 1015.1 1015.2 0.0
26/12:30pm 10.7 5.4 6.6 76 1.9 NNW 24 32 13 17 1015.5 1015.6 0.0
26/12:00pm 10.5 3.8 5.7 72 2.2 W 30 41 16 22 1015.8 1015.8 0.0
26/11:30am 11.5 6.3 7.2 75 2.1 NW 24 32 13 17 1015.9 1015.9 0.0
26/11:00am 11.7 6.3 7.8 77 1.9 WNW 26 33 14 18 1015.9 1015.9 0.0
26/10:30am 11.4 6.4 8.1 80 1.6 WNW 24 33 13 18 1016.0 1016.0 0.0
26/10:00am 10.6 4.8 7.8 83 1.3 WNW 28 35 15 19 1016.1 1016.1 0.0
26/09:30am 9.4 2.6 7.0 85 1.1 W 32 41 17 22 1015.8 1015.8 0.0
26/09:00am 9.3 4.1 7.1 86 1.0 W 24 33 13 18 1015.9 1015.9 4.0
26/08:30am 8.9 4.0 6.7 86 1.0 WNW 22 33 12 18 1015.9 1015.9 4.0
26/08:00am 9.0 4.0 6.4 84 1.2 WSW 22 33 12 18 1015.8 1015.8 3.8
26/07:30am 8.4 4.2 5.5 82 1.3 WNW 17 22 9 12 1015.6 1015.7 3.0
26/07:00am 8.8 3.9 5.2 78 1.6 WNW 20 32 11 17 1015.4 1015.5 3.0
26/06:30am 9.4 4.7 5.0 74 2.0 NW 19 28 10 15 1015.1 1015.2 3.0
26/06:00am 8.8 5.6 5.0 77 1.7 WNW 11 17 6 9 1015.2 1015.3 3.0
26/05:30am 8.9 4.1 5.6 80 1.5 NW 20 26 11 14 1015.1 1015.2 3.0
26/05:00am 8.8 4.6 5.7 81 1.4 WSW 17 26 9 14 1015.1 1015.2 3.0
26/04:30am 8.1 3.8 5.2 82 1.3 WNW 17 24 9 13 1015.1 1015.2 3.0
26/04:00am 8.4 1.2 5.2 80 1.4 W 32 43 17 23 1015.0 1015.1 3.0
26/03:30am 8.8 2.5 5.5 80 1.5 W 28 39 15 21 1014.9 1015.0 3.0
26/03:00am 8.6 1.9 5.5 81 1.4 WSW 30 37 16 20 1014.9 1015.0 3.0
26/02:30am 8.8 2.5 5.7 81 1.4 WSW 28 35 15 19 1014.9 1015.0 3.0
26/02:19am 8.6 2.3 5.9 83 1.2 WSW 28 39 15 21 1014.8 1014.9 3.0
26/02:00am 8.5 3.8 6.0 84 1.1 SW 20 26 11 14 1015.3 1015.4 3.0
26/01:30am 8.2 2.9 5.0 80 1.4 WSW 22 28 12 15 1015.4 1015.5 2.8
26/01:00am 8.8 3.8 4.8 76 1.8 W 20 28 11 15 1015.6 1015.7 2.4
26/12:30am 8.4 5.8 4.2 75 1.8 NNW 7 13 4 7 1015.6 1015.7 2.2
26/12:00am 8.3 4.5 3.9 74 1.9 WNW 13 17 7 9 1015.8 1015.8 2.2
 
Date/Time
EST
Temp
°C
App
Temp
°C
Dew
Point
°C
Rel
Hum
%
Delta-T
°C
Wind Press
QNH
hPa
Press
MSL
hPa
Rain since
9am
mm
Dir  Spd
km/h
Gust
km/h
Spd
kts
Gust
kts
25/11:30pm 9.0 2.8 4.4 73 2.0 W 26 39 14 21 1015.5 1015.6 2.2
25/11:00pm 8.8 4.6 3.8 71 2.2 WSW 15 20 8 11 1015.6 1015.7 2.2
25/10:30pm 8.1 4.5 3.2 71 2.1 W 11 15 6 8 1015.9 1015.9 2.2
25/10:00pm 8.4 4.6 3.7 72 2.0 W 13 20 7 11 1016.1 1016.1 2.2
25/09:30pm 8.7 3.2 3.9 72 2.1 WSW 22 30 12 16 1016.0 1016.0 2.2
25/09:00pm 8.9 3.9 3.5 69 2.3 WSW 19 32 10 17 1016.0 1016.0 2.2
25/08:30pm 9.1 2.7 3.1 66 2.6 WSW 26 33 14 18 1015.9 1015.9 2.2
25/08:00pm 9.2 1.8 4.0 70 2.3 WSW 32 37 17 20 1015.5 1015.6 2.2
25/07:30pm 8.7 4.1 3.9 72 2.1 W 17 26 9 14 1015.6 1015.7 2.2
25/07:00pm 9.3 3.4 4.1 70 2.3 WSW 24 32 13 17 1015.2 1015.3 2.2
25/06:30pm 9.4 2.7 3.8 68 2.4 SW 28 35 15 19 1015.0 1015.1 2.2
25/06:00pm 9.4 4.4 4.8 73 2.1 SW 20 26 11 14 1014.7 1014.8 2.2
25/05:30pm 9.3 2.4 4.7 73 2.0 SW 30 35 16 19 1014.4 1014.5 2.2
25/05:00pm 9.8 2.1 5.4 74 2.0 SW 35 41 19 22 1014.0 1014.1 2.2
25/04:30pm 10.6 4.7 6.0 73 2.1 SW 26 32 14 17 1013.9 1014.0 2.2
25/04:00pm 10.2 3.9 5.8 74 2.0 SW 28 33 15 18 1013.7 1013.8 2.2
25/03:30pm 10.4 5.0 6.2 75 2.0 SW 24 30 13 16 1013.7 1013.8 2.2
25/03:00pm 10.5 4.5 7.0 79 1.7 SSW 28 32 15 17 1013.6 1013.7 2.2
25/02:30pm 10.1 3.8 7.3 83 1.3 SW 30 33 16 18 1013.5 1013.6 2.2
25/02:00pm 9.7 3.4 7.6 87 1.0 SW 30 33 16 18 1013.3 1013.4 2.2
25/01:30pm 9.5 2.9 7.8 89 0.8 SSW 32 37 17 20 1013.3 1013.4 2.2
25/01:00pm 9.1 1.9 7.5 90 0.8 SSW 35 41 19 22 1013.3 1013.4 2.2
25/12:45pm 9.4 5.1 8.0 91 0.7 SSW 20 33 11 18 1013.4 1013.5 2.2
25/12:30pm 9.0 6.7 7.6 91 0.7 S 9 13 5 7 1013.7 1013.8 2.2
25/12:00pm 9.2 7.4 7.8 91 0.7 SSW 7 11 4 6 1013.6 1013.7 2.0
25/11:30am 8.7 6.4 7.3 91 0.7 WSW 9 11 5 6 1013.6 1013.7 1.0
25/11:00am 9.4 7.8 8.0 91 0.7 WSW 6 7 3 4 1013.5 1013.6 0.0
25/10:30am 9.7 8.2 8.3 91 0.7 NW 6 7 3 4 1013.3 1013.4 0.0
25/10:00am 9.5 8.0 8.4 93 0.5 N 6 9 3 5 1013.1 1013.2 0.0
25/09:30am 9.4 7.9 8.3 93 0.5 N 6 7 3 4 1012.9 1013.0 0.0
25/09:00am 8.0 6.1 6.9 93 0.5 N 6 7 3 4 1012.9 1013.0 15.2
25/08:30am 7.0 4.7 5.9 93 0.5 NE 7 9 4 5 1012.7 1012.8 15.2
25/08:00am 6.9 3.9 5.8 93 0.5 NNE 11 15 6 8 1012.5 1012.6 15.0
25/07:30am 6.6 3.9 5.6 93 0.4 NE 9 13 5 7 1012.4 1012.5 14.8
25/07:00am 6.6 3.9 5.6 93 0.4 NE 9 11 5 6 1012.1 1012.2 13.8
25/06:30am 6.4 4.2 5.4 93 0.4 NE 6 9 3 5 1011.9 1012.0 13.4
25/06:00am 6.2 3.4 5.2 93 0.4 NE 9 11 5 6 1011.6 1011.7 12.4
25/05:30am 6.0 3.5 4.8 92 0.5 ENE 7 11 4 6 1011.4 1011.5 12.2
25/05:00am 6.2 3.0 5.0 92 0.5 ENE 11 15 6 8 1011.2 1011.3 12.0
25/04:30am 6.7 4.0 5.5 92 0.5 NNE 9 11 5 6 1011.0 1011.1 11.0
25/04:00am 6.6 3.5 5.4 92 0.5 NE 11 13 6 7 1010.8 1010.9 10.6
25/03:30am 6.0 2.7 4.8 92 0.5 ENE 11 13 6 7 1010.7 1010.8 10.6
25/03:00am 6.1 4.2 4.9 92 0.5 NNE 4 9 2 5 1010.7 1010.8 10.6
25/02:30am 5.3 2.3 4.1 92 0.5 ENE 9 11 5 6 1010.9 1011.0 10.6
25/02:00am 5.2 1.4 4.0 92 0.5 ENE 13 15 7 8 1010.9 1011.0 10.6
25/01:30am 5.2 1.8 3.9 91 0.5 ENE 11 13 6 7 1011.2 1011.3 10.6
25/01:00am 5.7 2.0 4.3 91 0.6 E 13 13 7 7 1011.2 1011.3 10.6
25/12:30am 6.0 3.6 4.5 90 0.6 SE 6 9 3 5 1011.2 1011.3 10.4
25/12:00am 6.5 4.6 5.0 90 0.7 SW 4 4 2 2 1011.4 1011.5 10.4
 
Date/Time
EST
Temp
°C
App
Temp
°C
Dew
Point
°C
Rel
Hum
%
Delta-T
°C
Wind Press
QNH
hPa
Press
MSL
hPa
Rain since
9am
mm
Dir  Spd
km/h
Gust
km/h
Spd
kts
Gust
kts
24/11:30pm 6.6 4.7 5.1 90 0.7 S 4 9 2 5 1011.4 1011.5 9.6
24/11:00pm 7.1 4.4 5.6 90 0.7 NE 9 11 5 6 1011.4 1011.5 6.8
24/10:30pm 7.3 4.6 5.8 90 0.7 NE 9 11 5 6 1011.5 1011.6 6.8
24/10:00pm 7.0 4.7 5.5 90 0.7 NE 7 9 4 5 1011.7 1011.8 6.8

Other Formats:

Comma delimited format used in spreadsheet applications
http://www.bom.gov.au/fwo/IDT60801/IDT60801.94974.axf

JavaScript Object Notation format (JSON) in row-major order
http://www.bom.gov.au/fwo/IDT60801/IDT60801.94974.json